createdAt,value
2019-03-23T00:00:51.881Z,17.50
2019-03-23T00:03:19.271Z,16.93
2019-03-23T00:05:46.688Z,17.97
2019-03-23T00:08:14.151Z,17.47
2019-03-23T00:10:41.569Z,18.53
2019-03-23T00:13:08.958Z,16.83
2019-03-23T00:15:36.378Z,16.82
2019-03-23T00:18:03.757Z,16.40
2019-03-23T00:20:31.181Z,16.80
2019-03-23T00:22:58.567Z,17.50
2019-03-23T00:25:25.995Z,17.40
2019-03-23T00:27:53.445Z,16.97
2019-03-23T00:30:20.857Z,15.83
2019-03-23T00:32:48.246Z,16.83
2019-03-23T00:35:15.656Z,17.37
2019-03-23T00:37:43.050Z,17.60
2019-03-23T00:40:10.540Z,16.30
2019-03-23T00:42:37.932Z,16.73
2019-03-23T00:45:05.899Z,17.73
2019-03-23T00:47:33.283Z,16.63
2019-03-23T00:50:00.702Z,17.23
2019-03-23T00:52:28.101Z,16.00
2019-03-23T00:54:55.525Z,17.00
2019-03-23T00:57:22.912Z,16.43
2019-03-23T00:59:50.337Z,17.70
2019-03-23T01:02:17.788Z,15.57
2019-03-23T01:04:45.205Z,16.57
2019-03-23T01:07:12.599Z,15.57
2019-03-23T01:09:39.993Z,16.80
2019-03-23T01:12:07.420Z,16.50
2019-03-23T01:14:34.807Z,17.73
2019-03-23T01:17:02.220Z,18.17
2019-03-23T01:19:29.609Z,13.90
2019-03-23T01:21:57.030Z,16.33
2019-03-23T01:24:24.410Z,15.83
2019-03-23T01:26:51.829Z,16.97
2019-03-23T01:29:19.218Z,17.53
2019-03-23T01:31:46.643Z,20.87
2019-03-23T01:34:14.025Z,18.80
2019-03-23T01:36:41.445Z,18.07
2019-03-23T01:39:08.825Z,17.80
2019-03-23T01:41:36.242Z,17.30
2019-03-23T01:44:03.632Z,18.60
2019-03-23T01:46:31.050Z,17.27
2019-03-23T01:48:58.429Z,17.60
2019-03-23T01:51:25.844Z,17.87
2019-03-23T01:53:53.233Z,16.93
2019-03-23T01:56:20.718Z,16.80
2019-03-23T01:58:48.114Z,16.97
2019-03-23T02:01:15.540Z,16.60
2019-03-23T02:03:42.924Z,18.40
2019-03-23T02:06:10.605Z,17.13
2019-03-23T02:08:37.992Z,16.37
2019-03-23T02:11:05.404Z,15.80
2019-03-23T02:13:32.794Z,17.00
2019-03-23T02:16:00.186Z,18.10
2019-03-23T02:18:27.675Z,15.33
2019-03-23T02:20:55.932Z,18.00
2019-03-23T02:23:23.345Z,17.50
2019-03-23T02:25:51.625Z,16.80
2019-03-23T02:28:19.048Z,17.57
2019-03-23T02:30:46.434Z,17.43
2019-03-23T02:33:13.850Z,18.53
2019-03-23T02:35:41.249Z,19.10
2019-03-23T02:38:08.667Z,16.53
2019-03-23T02:40:36.060Z,17.57
2019-03-23T02:43:03.479Z,16.33
2019-03-23T02:45:30.868Z,18.23
2019-03-23T02:47:58.286Z,18.03
2019-03-23T02:50:25.701Z,17.43
2019-03-23T02:52:53.090Z,18.90
2019-03-23T02:55:20.485Z,18.23
2019-03-23T02:57:47.904Z,18.60
2019-03-23T03:00:15.955Z,18.97
2019-03-23T03:02:43.375Z,18.10
2019-03-23T03:05:10.838Z,17.90
2019-03-23T03:07:42.429Z,17.87
2019-03-23T03:10:08.845Z,18.60
2019-03-23T03:12:36.261Z,17.63
2019-03-23T03:15:05.120Z,18.67
2019-03-23T03:17:32.537Z,15.00
2019-03-23T03:19:59.931Z,17.83
2019-03-23T03:22:27.340Z,18.07
2019-03-23T03:24:54.729Z,17.20
2019-03-23T03:27:22.144Z,19.73
2019-03-23T03:29:49.543Z,18.20
2019-03-23T03:32:16.970Z,18.40
2019-03-23T03:34:44.344Z,19.27
2019-03-23T03:37:11.759Z,18.20
2019-03-23T03:39:39.146Z,16.70
2019-03-23T03:42:06.629Z,17.13
2019-03-23T03:44:34.023Z,18.17
2019-03-23T03:47:01.430Z,17.80
2019-03-23T03:49:28.821Z,17.27
2019-03-23T03:51:56.254Z,17.63
2019-03-23T03:54:23.638Z,18.60
2019-03-23T03:56:51.025Z,17.70
2019-03-23T03:59:18.441Z,18.57
2019-03-23T04:01:45.827Z,17.80
2019-03-23T04:04:13.247Z,17.53
2019-03-23T04:06:40.643Z,18.47
2019-03-23T04:09:08.054Z,18.93
2019-03-23T04:11:35.436Z,19.40
2019-03-23T04:14:02.847Z,17.43
2019-03-23T04:16:30.242Z,18.10
2019-03-23T04:18:57.668Z,16.00
2019-03-23T04:21:25.060Z,17.53
2019-03-23T04:23:52.468Z,17.20
2019-03-23T04:26:19.912Z,18.83
2019-03-23T04:28:47.286Z,17.03
2019-03-23T04:31:14.693Z,17.87
2019-03-23T04:33:42.101Z,18.00
2019-03-23T04:36:09.555Z,18.77
2019-03-23T04:38:36.974Z,17.67
2019-03-23T04:41:04.355Z,19.43
2019-03-23T04:43:31.770Z,18.13
2019-03-23T04:45:59.157Z,17.97
2019-03-23T04:48:26.569Z,19.63
2019-03-23T04:50:53.961Z,18.70
2019-03-23T04:53:21.377Z,17.13
2019-03-23T04:55:48.765Z,18.90
2019-03-23T04:58:16.178Z,18.03
2019-03-23T05:00:43.564Z,18.17
2019-03-23T05:03:10.985Z,18.37
2019-03-23T05:05:38.368Z,17.67
2019-03-23T05:08:05.786Z,18.30
2019-03-23T05:10:33.178Z,16.07
2019-03-23T05:13:00.597Z,16.67
2019-03-23T05:15:27.990Z,18.70
2019-03-23T05:17:55.415Z,18.90
2019-03-23T05:20:26.896Z,18.80
2019-03-23T05:22:54.356Z,19.53
2019-03-23T05:25:25.639Z,20.03
2019-03-23T05:27:53.028Z,18.63
2019-03-23T05:30:20.450Z,19.10
2019-03-23T05:32:47.833Z,18.47
2019-03-23T05:35:15.257Z,17.40
2019-03-23T05:37:42.736Z,19.00
2019-03-23T05:40:10.219Z,19.20
2019-03-23T05:42:37.601Z,20.60
2019-03-23T05:45:05.977Z,17.90
2019-03-23T05:47:33.362Z,18.20
2019-03-23T05:50:00.774Z,18.60
2019-03-23T05:52:28.170Z,19.70
2019-03-23T05:54:55.576Z,19.73
2019-03-23T05:57:22.965Z,16.87
2019-03-23T05:59:50.381Z,18.03
2019-03-23T06:02:17.774Z,16.70
2019-03-23T06:04:45.193Z,19.97
2019-03-23T06:07:12.581Z,20.93
2019-03-23T06:09:40.001Z,19.00
2019-03-23T06:12:07.391Z,17.40
2019-03-23T06:14:34.817Z,19.23
2019-03-23T06:17:02.196Z,19.40
2019-03-23T06:19:29.616Z,20.00
2019-03-23T06:21:57.014Z,20.00
2019-03-23T06:24:24.420Z,18.10
2019-03-23T06:26:51.808Z,17.60
2019-03-23T06:29:19.233Z,19.50
2019-03-23T06:31:46.694Z,20.93
2019-03-23T06:34:14.106Z,19.30
2019-03-23T06:36:41.498Z,18.87
2019-03-23T06:39:08.917Z,18.13
2019-03-23T06:41:36.305Z,19.73
2019-03-23T06:44:03.730Z,19.43
2019-03-23T06:46:31.121Z,20.43
2019-03-23T06:48:58.530Z,33.43
2019-03-23T06:51:25.920Z,36.93
2019-03-23T06:53:53.328Z,52.03
2019-03-23T06:56:20.718Z,24.20
2019-03-23T06:58:48.133Z,20.40
2019-03-23T07:01:15.520Z,20.10
2019-03-23T07:03:42.909Z,18.67
2019-03-23T07:06:10.339Z,18.87
2019-03-23T07:08:37.722Z,20.67
2019-03-23T07:11:05.216Z,20.53
2019-03-23T07:13:32.595Z,20.03
2019-03-23T07:16:00.022Z,19.70
2019-03-23T07:18:27.410Z,19.63
2019-03-23T07:20:54.830Z,20.03
2019-03-23T07:23:22.226Z,21.23
2019-03-23T07:25:49.725Z,20.70
2019-03-23T07:28:17.114Z,21.43
2019-03-23T07:30:44.535Z,19.87
2019-03-23T07:33:11.918Z,20.63
2019-03-23T07:35:39.339Z,20.80
2019-03-23T07:38:06.728Z,20.00
2019-03-23T07:40:34.150Z,20.93
2019-03-23T07:43:01.538Z,20.37
2019-03-23T07:45:28.958Z,21.30
2019-03-23T07:47:56.353Z,22.50
2019-03-23T07:50:23.749Z,21.43
2019-03-23T07:52:51.137Z,20.80
2019-03-23T07:55:18.568Z,19.52
2019-03-23T07:57:45.951Z,21.43
2019-03-23T08:00:14.937Z,21.53
2019-03-23T08:02:42.321Z,19.83
2019-03-23T08:05:09.805Z,21.43
2019-03-23T08:07:37.202Z,22.10
2019-03-23T08:10:04.889Z,22.90
2019-03-23T08:12:32.309Z,19.80
2019-03-23T08:14:59.753Z,23.63
2019-03-23T08:17:27.156Z,31.53
2019-03-23T08:19:54.566Z,31.77
2019-03-23T08:22:21.956Z,21.83
2019-03-23T08:24:49.367Z,19.80
2019-03-23T08:27:16.755Z,22.60
2019-03-23T08:29:44.174Z,19.80
2019-03-23T08:32:11.569Z,23.17
2019-03-23T08:34:38.974Z,21.00
2019-03-23T08:37:06.365Z,21.30
2019-03-23T08:39:33.755Z,21.00
2019-03-23T08:42:01.171Z,21.90
2019-03-23T08:44:28.553Z,22.80
2019-03-23T08:46:55.972Z,20.73
2019-03-23T08:49:23.363Z,21.83
2019-03-23T08:51:50.777Z,20.40
2019-03-23T08:54:18.162Z,18.30
2019-03-23T08:56:45.581Z,18.03
2019-03-23T08:59:13.055Z,19.17
2019-03-23T09:01:40.469Z,19.30
2019-03-23T09:04:07.857Z,22.53
2019-03-23T09:06:35.282Z,24.63
2019-03-23T09:09:04.233Z,24.93
2019-03-23T09:11:31.723Z,23.87
2019-03-23T09:13:59.105Z,22.00
2019-03-23T09:16:26.533Z,20.17
2019-03-23T09:18:53.908Z,24.87
2019-03-23T09:21:21.344Z,24.27
2019-03-23T09:23:48.731Z,26.10
2019-03-23T09:26:16.149Z,23.70
2019-03-23T09:28:43.539Z,24.20
2019-03-23T09:31:10.958Z,23.27
2019-03-23T09:33:38.415Z,22.80
2019-03-23T09:36:05.907Z,23.57
2019-03-23T09:38:33.423Z,23.60
2019-03-23T09:41:00.834Z,25.13
2019-03-23T09:43:28.222Z,25.13
2019-03-23T09:45:55.641Z,23.50
2019-03-23T09:48:23.025Z,24.70
2019-03-23T09:50:50.437Z,23.20
2019-03-23T09:53:17.821Z,22.73
2019-03-23T09:55:45.248Z,26.67
2019-03-23T09:58:12.633Z,24.10
2019-03-23T10:00:40.054Z,19.00
2019-03-23T10:03:07.462Z,25.57
2019-03-23T10:05:34.857Z,23.87
2019-03-23T10:08:02.314Z,24.93
2019-03-23T10:10:29.725Z,26.25
2019-03-23T10:12:57.115Z,27.97
2019-03-23T10:15:24.503Z,24.00
2019-03-23T10:17:51.922Z,26.47
2019-03-23T10:20:19.311Z,23.60
2019-03-23T10:22:46.720Z,25.67
2019-03-23T10:25:14.110Z,22.45
2019-03-23T10:27:41.530Z,24.17
2019-03-23T10:30:09.786Z,26.10
2019-03-23T10:32:37.206Z,24.60
2019-03-23T10:35:06.263Z,25.50
2019-03-23T10:37:33.673Z,25.33
2019-03-23T10:40:01.064Z,26.53
2019-03-23T10:42:28.545Z,25.20
2019-03-23T10:44:55.929Z,25.57
2019-03-23T10:47:23.369Z,24.00
2019-03-23T10:49:50.734Z,26.03
2019-03-23T10:52:18.157Z,24.63
2019-03-23T10:54:45.542Z,25.53
2019-03-23T10:57:12.974Z,28.47
2019-03-23T10:59:40.354Z,28.43
2019-03-23T11:02:07.775Z,25.40
2019-03-23T11:04:35.165Z,28.60
2019-03-23T11:07:02.578Z,27.47
2019-03-23T11:09:29.971Z,27.60
2019-03-23T11:11:57.383Z,27.20
2019-03-23T11:14:24.767Z,26.20
2019-03-23T11:16:52.181Z,31.97
2019-03-23T11:19:19.570Z,25.13
2019-03-23T11:21:46.989Z,29.77
2019-03-23T11:24:14.372Z,27.10
2019-03-23T11:26:41.794Z,28.00
2019-03-23T11:29:09.192Z,25.33
2019-03-23T11:31:36.617Z,25.80
2019-03-23T11:34:04.098Z,26.67
2019-03-23T11:36:31.510Z,27.33
2019-03-23T11:38:58.889Z,25.70
2019-03-23T11:41:26.340Z,29.17
2019-03-23T11:43:53.734Z,26.77
2019-03-23T11:46:21.117Z,30.70
2019-03-23T11:48:48.530Z,25.10
2019-03-23T11:51:15.913Z,28.70
2019-03-23T11:53:43.449Z,26.00
2019-03-23T11:56:10.842Z,29.87
2019-03-23T11:58:38.299Z,29.20
2019-03-23T12:01:05.692Z,25.23
2019-03-23T12:03:33.115Z,29.37
2019-03-23T12:06:00.494Z,28.70
2019-03-23T12:08:27.905Z,24.00
2019-03-23T12:11:02.745Z,26.07
2019-03-23T12:13:24.355Z,28.43
2019-03-23T12:15:51.741Z,30.27
2019-03-23T12:18:19.152Z,25.67
2019-03-23T12:20:46.543Z,27.50
2019-03-23T12:23:13.969Z,27.57
2019-03-23T12:25:41.347Z,26.10
2019-03-23T12:28:08.770Z,24.93
2019-03-23T12:30:36.158Z,28.40
2019-03-23T12:33:03.571Z,25.63
2019-03-23T12:35:30.965Z,26.30
2019-03-23T12:37:58.372Z,27.40
2019-03-23T12:40:25.765Z,26.80
2019-03-23T12:42:53.185Z,27.60
2019-03-23T12:45:20.586Z,26.53
2019-03-23T12:47:48.000Z,26.97
2019-03-23T12:50:15.388Z,25.23
2019-03-23T12:52:42.802Z,23.03
2019-03-23T12:55:10.255Z,25.37
2019-03-23T12:57:37.674Z,26.97
2019-03-23T13:00:06.603Z,26.93
2019-03-23T13:02:34.015Z,26.00
2019-03-23T13:05:01.402Z,25.13
2019-03-23T13:07:28.820Z,28.80
2019-03-23T13:09:56.207Z,26.17
2019-03-23T13:12:23.625Z,25.93
2019-03-23T13:14:51.017Z,27.10
2019-03-23T13:17:18.437Z,26.00
2019-03-23T13:19:45.821Z,24.93
2019-03-23T13:22:13.241Z,24.20
2019-03-23T13:24:40.632Z,27.57
2019-03-23T13:27:08.024Z,26.47
2019-03-23T13:29:35.430Z,22.53
2019-03-23T13:32:02.894Z,25.40
2019-03-23T13:34:30.305Z,23.13
2019-03-23T13:36:57.705Z,28.20
2019-03-23T13:39:25.120Z,26.60
2019-03-23T13:41:52.509Z,25.47
2019-03-23T13:44:19.937Z,25.83
2019-03-23T13:46:47.325Z,30.17
2019-03-23T13:49:14.742Z,26.93
2019-03-23T13:51:42.141Z,27.57
2019-03-23T13:54:09.556Z,26.93
2019-03-23T13:56:36.950Z,25.73
2019-03-23T13:59:04.377Z,27.10
2019-03-23T14:01:31.760Z,27.10
2019-03-23T14:03:59.175Z,27.20
2019-03-23T14:06:26.574Z,25.87
2019-03-23T14:08:53.993Z,25.67
2019-03-23T14:11:21.385Z,27.37
2019-03-23T14:13:48.801Z,27.80
2019-03-23T14:16:16.196Z,26.73
2019-03-23T14:18:43.604Z,26.60
2019-03-23T14:21:11.005Z,26.87
2019-03-23T14:23:38.436Z,28.93
2019-03-23T14:26:05.915Z,25.67
2019-03-23T14:28:33.320Z,27.13
2019-03-23T14:31:00.713Z,27.83
2019-03-23T14:33:28.119Z,26.30
2019-03-23T14:35:55.584Z,25.20
2019-03-23T14:38:23.000Z,27.03
2019-03-23T14:40:50.401Z,25.37
2019-03-23T14:43:17.815Z,29.23
2019-03-23T14:45:45.219Z,26.47
2019-03-23T14:48:12.630Z,27.40
2019-03-23T14:50:40.026Z,26.30
2019-03-23T14:53:07.414Z,26.73
2019-03-23T14:55:34.828Z,26.33
2019-03-23T14:58:02.217Z,27.97
2019-03-23T15:00:30.214Z,27.27
2019-03-23T15:02:57.605Z,27.00
2019-03-23T15:05:25.026Z,26.83
2019-03-23T15:07:52.413Z,24.60
2019-03-23T15:10:19.820Z,25.97
2019-03-23T15:12:47.285Z,25.77
2019-03-23T15:15:14.692Z,24.17
2019-03-23T15:17:48.712Z,25.40
2019-03-23T15:20:11.217Z,27.43
2019-03-23T15:22:38.672Z,26.30
2019-03-23T15:25:06.159Z,23.80
2019-03-23T15:27:33.549Z,23.60
2019-03-23T15:30:00.967Z,25.37
2019-03-23T15:32:28.350Z,25.90
2019-03-23T15:34:55.769Z,25.60
2019-03-23T15:37:23.154Z,28.40
2019-03-23T15:39:50.569Z,30.97
2019-03-23T15:42:24.703Z,27.37
2019-03-23T15:44:47.022Z,29.90
2019-03-23T15:47:14.405Z,30.83
2019-03-23T15:49:41.831Z,29.27
2019-03-23T15:52:09.214Z,26.63
2019-03-23T15:54:36.632Z,27.67
2019-03-23T15:57:04.021Z,27.77
2019-03-23T15:59:31.520Z,28.70
2019-03-23T16:01:58.907Z,28.43
2019-03-23T16:04:26.320Z,29.23
2019-03-23T16:06:53.714Z,30.43
2019-03-23T16:09:21.119Z,27.07
2019-03-23T16:11:48.509Z,34.07
2019-03-23T16:14:15.973Z,29.97
2019-03-23T16:16:43.392Z,28.00
2019-03-23T16:19:10.781Z,28.97
2019-03-23T16:21:38.199Z,27.20
2019-03-23T16:24:05.600Z,30.70
2019-03-23T16:26:33.042Z,27.53
2019-03-23T16:29:00.430Z,28.50
2019-03-23T16:31:27.863Z,28.73
2019-03-23T16:33:55.245Z,30.33
2019-03-23T16:36:22.674Z,29.07
2019-03-23T16:38:50.066Z,28.90
2019-03-23T16:41:17.479Z,26.17
2019-03-23T16:43:44.871Z,27.50
2019-03-23T16:46:12.292Z,26.77
2019-03-23T16:48:39.691Z,25.77
2019-03-23T16:51:07.111Z,26.70
2019-03-23T16:53:34.570Z,25.50
2019-03-23T16:56:01.991Z,27.27
2019-03-23T16:58:29.446Z,27.90
2019-03-23T17:00:56.933Z,26.67
2019-03-23T17:03:24.362Z,27.90
2019-03-23T17:05:51.856Z,25.27
2019-03-23T17:08:19.249Z,24.97
2019-03-23T17:10:46.665Z,29.90
2019-03-23T17:13:14.058Z,30.13
2019-03-23T17:15:41.482Z,26.37
2019-03-23T17:18:08.878Z,29.73
2019-03-23T17:20:36.319Z,27.93
2019-03-23T17:23:03.695Z,33.23
2019-03-23T17:25:31.582Z,28.83
2019-03-23T17:27:58.949Z,29.80
2019-03-23T17:30:26.364Z,31.50
2019-03-23T17:32:53.759Z,30.53
2019-03-23T17:35:21.141Z,29.80
2019-03-23T17:37:48.559Z,32.47
2019-03-23T17:40:15.944Z,30.40
2019-03-23T17:42:43.365Z,30.40
2019-03-23T17:45:10.742Z,32.00
2019-03-23T17:47:38.154Z,33.70
2019-03-23T17:50:05.826Z,33.97
2019-03-23T17:52:33.229Z,32.30
2019-03-23T17:55:00.623Z,33.60
2019-03-23T17:57:28.032Z,29.60
2019-03-23T17:59:55.728Z,34.90
2019-03-23T18:02:23.069Z,32.77
2019-03-23T18:04:50.456Z,34.97
2019-03-23T18:07:17.880Z,34.73
2019-03-23T18:09:45.272Z,32.40
2019-03-23T18:12:12.681Z,33.87
2019-03-23T18:14:40.083Z,35.60
2019-03-23T18:17:07.484Z,39.50
2019-03-23T18:19:34.873Z,38.33
2019-03-23T18:22:02.291Z,35.70
2019-03-23T18:24:29.676Z,34.60
2019-03-23T18:26:57.092Z,36.97
2019-03-23T18:29:24.483Z,36.90
2019-03-23T18:31:51.892Z,34.73
2019-03-23T18:34:19.300Z,33.90
2019-03-23T18:36:46.781Z,35.53
2019-03-23T18:39:14.159Z,35.60
2019-03-23T18:41:41.582Z,34.00
2019-03-23T18:44:16.128Z,33.30
2019-03-23T18:46:38.197Z,32.10
2019-03-23T18:49:05.692Z,37.60
2019-03-23T18:51:33.214Z,33.33
2019-03-23T18:54:00.607Z,36.67
2019-03-23T18:56:28.020Z,37.43
2019-03-23T18:58:55.414Z,38.47
2019-03-23T19:01:22.842Z,38.57
2019-03-23T19:03:50.232Z,36.73
2019-03-23T19:06:17.615Z,36.53
2019-03-23T19:08:45.271Z,38.07
2019-03-23T19:11:14.866Z,35.53
2019-03-23T19:13:41.688Z,34.20
2019-03-23T19:16:09.081Z,34.57
2019-03-23T19:18:36.498Z,36.27
2019-03-23T19:21:03.978Z,34.87
2019-03-23T19:23:31.369Z,33.57
2019-03-23T19:25:58.751Z,33.50
2019-03-23T19:28:26.170Z,34.80
2019-03-23T19:30:53.582Z,34.27
2019-03-23T19:33:21.045Z,32.80
2019-03-23T19:35:48.407Z,36.60
2019-03-23T19:38:18.039Z,35.90
2019-03-23T19:40:45.019Z,34.20
2019-03-23T19:43:12.441Z,35.57
2019-03-23T19:45:39.835Z,34.73
2019-03-23T19:48:07.254Z,36.73
2019-03-23T19:50:34.638Z,35.67
2019-03-23T19:53:02.062Z,37.23
2019-03-23T19:55:29.449Z,32.70
2019-03-23T19:57:56.873Z,36.10
2019-03-23T20:00:24.262Z,35.67
2019-03-23T20:02:51.676Z,36.10
2019-03-23T20:05:19.066Z,36.30
2019-03-23T20:07:46.483Z,35.80
2019-03-23T20:10:14.033Z,34.67
2019-03-23T20:12:41.455Z,34.90
2019-03-23T20:15:09.318Z,34.93
2019-03-23T20:17:36.796Z,36.43
2019-03-23T20:20:05.738Z,35.97
2019-03-23T20:22:33.228Z,36.50
2019-03-23T20:25:00.627Z,37.20
2019-03-23T20:27:28.005Z,37.90
2019-03-23T20:29:55.423Z,35.10
2019-03-23T20:32:22.802Z,36.13
2019-03-23T20:34:50.213Z,34.70
2019-03-23T20:37:17.616Z,36.73
2019-03-23T20:39:45.027Z,36.90
2019-03-23T20:42:12.415Z,37.07
2019-03-23T20:44:39.846Z,37.50
2019-03-23T20:47:07.303Z,37.57
2019-03-23T20:49:34.717Z,36.23
2019-03-23T20:52:02.183Z,40.60
2019-03-23T20:54:29.774Z,38.37
2019-03-23T20:56:57.159Z,41.53
2019-03-23T20:59:24.580Z,36.30
2019-03-23T21:01:52.002Z,38.83
2019-03-23T21:04:19.488Z,35.80
2019-03-23T21:06:46.881Z,38.10
2019-03-23T21:09:14.291Z,36.73
2019-03-23T21:11:41.674Z,38.50
2019-03-23T21:14:19.644Z,39.50
2019-03-23T21:16:38.130Z,40.60
2019-03-23T21:19:05.541Z,40.27
2019-03-23T21:21:32.938Z,41.07
2019-03-23T21:24:00.357Z,39.20
2019-03-23T21:26:27.751Z,42.60
2019-03-23T21:28:55.163Z,44.20
2019-03-23T21:31:22.567Z,42.60
2019-03-23T21:33:49.968Z,40.13
2019-03-23T21:36:17.350Z,41.90
2019-03-23T21:38:44.765Z,42.03
2019-03-23T21:41:12.225Z,41.67
2019-03-23T21:43:39.654Z,43.53
2019-03-23T21:46:07.046Z,42.80
2019-03-23T21:48:34.481Z,42.50
2019-03-23T21:51:01.912Z,42.90
2019-03-23T21:53:29.369Z,44.10
2019-03-23T21:55:56.798Z,46.58
2019-03-23T21:58:24.278Z,44.90
2019-03-23T22:00:51.769Z,44.90
2019-03-23T22:03:19.189Z,43.60
2019-03-23T22:05:46.608Z,41.07
2019-03-23T22:08:14.005Z,43.03
2019-03-23T22:10:41.493Z,42.87
2019-03-23T22:13:08.881Z,42.63
2019-03-23T22:15:36.300Z,40.33
2019-03-23T22:18:03.838Z,44.60
2019-03-23T22:20:31.264Z,43.30
2019-03-23T22:22:58.768Z,39.30
2019-03-23T22:25:26.243Z,43.70
2019-03-23T22:27:53.665Z,42.87
2019-03-23T22:30:21.092Z,41.80
2019-03-23T22:32:48.547Z,43.43
2019-03-23T22:35:15.966Z,41.63
2019-03-23T22:37:43.350Z,42.60
2019-03-23T22:40:10.941Z,42.73
2019-03-23T22:42:38.345Z,43.57
2019-03-23T22:45:08.976Z,46.67
2019-03-23T22:47:36.437Z,40.87
2019-03-23T22:50:05.559Z,41.40
2019-03-23T22:52:32.945Z,44.40
2019-03-23T22:55:00.437Z,46.03
2019-03-23T22:57:27.837Z,40.67
2019-03-23T22:59:55.251Z,39.43
2019-03-23T23:02:22.653Z,41.47
2019-03-23T23:04:50.106Z,41.97
2019-03-23T23:07:17.495Z,43.53
2019-03-23T23:09:44.925Z,41.47
2019-03-23T23:12:12.377Z,40.57
2019-03-23T23:14:39.785Z,44.50
2019-03-23T23:17:07.174Z,42.70
2019-03-23T23:19:34.584Z,41.07
2019-03-23T23:22:02.040Z,40.40
2019-03-23T23:24:29.439Z,45.37
2019-03-23T23:26:56.849Z,42.30
2019-03-23T23:29:24.246Z,42.90
2019-03-23T23:31:51.667Z,44.20
2019-03-23T23:34:19.045Z,44.40
2019-03-23T23:36:46.538Z,44.50
2019-03-23T23:39:13.928Z,44.70
2019-03-23T23:41:41.399Z,41.73
2019-03-23T23:44:08.792Z,44.40
2019-03-23T23:46:36.214Z,46.00
2019-03-23T23:49:03.679Z,42.83
2019-03-23T23:51:31.088Z,44.00
2019-03-23T23:53:58.478Z,47.10
2019-03-23T23:56:25.896Z,43.50
2019-03-23T23:58:53.284Z,44.40
